Tri-State/Milton J. Ferguson Field
KHTS : now visible

Airfield :











YOU CAN JOIN US ON...

 
LOGIN :

Register | Disclaimer

   EN    FR    IT 

 









Legend :    VFR   Marginal VFR   IFR   Intensive IFR   Very Intensive IFR
Visi :
Ceiling :
>= 8 km
>= 3000ft
5 to 8 km
1000 to 3000 ft
1500m to 5 km
500 to 1000 ft
800 to 1500m
200 to 500 ft
< 800m
< 200 ft
Symbols :   Thunderstorms  Fog  Heavy snow  Heavy precipitations  Wind > 20 kt






- Airport Elevation : 828 ft
- IATA code : HTS


KHTS - Tri-State/Milton J. Ferguson Field

CURRENT METAR :
  • 311151Z 00000KT 10SM CLR 02/01 A3041 RMK AO2 SLP298 T00220011 10050 20022 53010 $

EXPIRED METARs :
  • 311051Z 00000KT 10SM CLR 02/01 A3041 RMK AO2 SLP297 T00220011 $
  • 310951Z 04003KT 10SM CLR 02/01 A3037 RMK AO2 SLP283 T00220011 $

TAF KHTS
Valid from the 31 at 12:00 until the 01 at 12:00 UTC


311137Z 3112/0112 VRB04KT P6SM SKC
FM311900 14004KT P6SM SKC
FM010400 17004KT P6SM SCT250
FM011100 20008G16KT P6SM BKN040
KZID FIR / North America



MET'MAP, your aeronautical weather chart ! - Copyright ORBIFLY December 2007 - Disclaimer

ORBIFLY MET'MAP TEAM :

Programming & Development : Alexandra Zaïnal
Concept & original design : Baudouin d'Aumeries
Assistance for programming : Marc-Olivier Méhu
Technical & hardware support : Manuel Goepfert

Contact : metmap@orbifly.com




SOURCES & CREDITS :

   NOAA       Earth
Advisory